createdAt,value
2017-10-29T00:00:33.259Z,99.90
2017-10-29T00:03:00.949Z,99.90
2017-10-29T00:05:28.450Z,99.90
2017-10-29T00:07:56.160Z,99.90
2017-10-29T00:10:23.924Z,99.90
2017-10-29T00:12:51.698Z,99.90
2017-10-29T00:15:19.192Z,99.90
2017-10-29T00:17:47.449Z,99.90
2017-10-29T00:20:14.996Z,99.90
2017-10-29T00:22:42.492Z,99.90
2017-10-29T00:25:10.200Z,99.90
2017-10-29T00:27:38.583Z,99.90
2017-10-29T00:30:06.089Z,99.90
2017-10-29T00:32:33.759Z,99.90
2017-10-29T00:35:01.276Z,99.90
2017-10-29T00:37:28.793Z,99.90
2017-10-29T00:39:56.316Z,99.90
2017-10-29T00:42:24.592Z,99.90
2017-10-29T00:44:52.107Z,99.90
2017-10-29T00:47:19.612Z,99.90
2017-10-29T00:49:47.892Z,99.90
2017-10-29T00:52:15.600Z,99.90
2017-10-29T00:54:43.123Z,99.90
2017-10-29T00:57:10.635Z,99.90
2017-10-29T00:59:38.163Z,99.90
2017-10-29T01:02:05.664Z,99.90
2017-10-29T01:04:33.192Z,99.90
2017-10-29T01:07:00.706Z,99.90
2017-10-29T01:09:28.208Z,99.90
2017-10-29T01:11:55.723Z,99.90
2017-10-29T01:14:23.228Z,99.90
2017-10-29T01:16:50.752Z,99.90
2017-10-29T01:19:18.256Z,99.90
2017-10-29T01:21:45.773Z,99.90
2017-10-29T01:24:13.467Z,99.90
2017-10-29T01:26:40.976Z,99.90
2017-10-29T01:29:08.696Z,99.90
2017-10-29T01:31:36.207Z,99.90
2017-10-29T01:34:04.474Z,99.90
2017-10-29T01:36:31.979Z,99.90
2017-10-29T01:38:59.736Z,99.90
2017-10-29T01:41:27.245Z,99.90
2017-10-29T01:43:54.912Z,99.90
2017-10-29T01:46:22.896Z,99.90
2017-10-29T01:48:50.385Z,99.90
2017-10-29T01:51:17.910Z,99.90
2017-10-29T01:53:45.624Z,99.90
2017-10-29T01:56:13.158Z,99.90
2017-10-29T01:58:40.677Z,99.90
2017-10-29T02:01:08.377Z,99.90
2017-10-29T02:03:36.136Z,99.90
2017-10-29T02:06:03.643Z,99.90
2017-10-29T02:08:31.156Z,99.90
2017-10-29T02:10:58.665Z,99.90
2017-10-29T02:13:26.183Z,99.90
2017-10-29T02:15:53.680Z,99.90
2017-10-29T02:18:21.200Z,99.90
2017-10-29T02:20:48.820Z,99.90
2017-10-29T02:23:16.416Z,99.90
2017-10-29T02:25:44.163Z,99.90
2017-10-29T02:28:11.676Z,99.90
2017-10-29T02:30:39.388Z,99.90
2017-10-29T02:33:07.028Z,99.90
2017-10-29T02:35:34.644Z,99.90
2017-10-29T02:38:02.346Z,99.90
2017-10-29T02:40:29.857Z,99.90
2017-10-29T02:42:57.372Z,99.90
2017-10-29T02:45:24.996Z,99.90
2017-10-29T02:47:52.513Z,99.90
2017-10-29T02:50:20.265Z,99.90
2017-10-29T02:52:47.765Z,99.90
2017-10-29T02:55:15.492Z,99.90
2017-10-29T02:57:43.252Z,99.90
2017-10-29T03:00:10.761Z,99.90
2017-10-29T03:02:38.396Z,99.90
2017-10-29T03:05:05.904Z,99.90
2017-10-29T03:07:33.405Z,99.90
2017-10-29T03:10:00.914Z,99.90
2017-10-29T03:12:28.604Z,99.90
2017-10-29T03:14:56.240Z,99.90
2017-10-29T03:17:23.945Z,99.90
2017-10-29T03:19:52.347Z,99.90
2017-10-29T03:22:20.612Z,97.50
2017-10-29T03:24:48.138Z,97.50
2017-10-29T03:27:15.645Z,97.50
2017-10-29T03:29:43.922Z,97.70
2017-10-29T03:32:11.632Z,97.70
2017-10-29T03:34:39.180Z,98.00
2017-10-29T03:37:07.429Z,98.60
2017-10-29T03:39:34.952Z,99.00
2017-10-29T03:42:02.459Z,99.80
2017-10-29T03:44:30.150Z,99.90
2017-10-29T03:46:57.650Z,99.40
2017-10-29T03:49:25.150Z,99.50
2017-10-29T03:51:53.616Z,99.90
2017-10-29T03:54:21.188Z,99.90
2017-10-29T03:56:48.960Z,99.90
2017-10-29T03:59:16.457Z,99.90
2017-10-29T04:01:44.288Z,99.90
2017-10-29T04:04:11.792Z,99.90
2017-10-29T04:06:40.323Z,99.90
2017-10-29T04:09:07.823Z,99.90
2017-10-29T04:11:35.336Z,99.90
2017-10-29T04:14:03.003Z,99.90
2017-10-29T04:16:30.504Z,99.90
2017-10-29T04:18:58.004Z,99.90
2017-10-29T04:21:25.552Z,99.90
2017-10-29T04:23:53.105Z,99.90
2017-10-29T04:26:20.619Z,99.90
2017-10-29T04:28:48.148Z,99.90
2017-10-29T04:31:15.648Z,99.90
2017-10-29T04:33:43.908Z,99.90
2017-10-29T04:36:11.415Z,99.90
2017-10-29T04:38:39.096Z,99.90
2017-10-29T04:41:07.332Z,99.90
2017-10-29T04:43:34.835Z,99.90
2017-10-29T04:46:02.340Z,99.90
2017-10-29T04:48:29.854Z,99.90
2017-10-29T04:50:57.345Z,99.90
2017-10-29T04:53:24.943Z,99.90
2017-10-29T04:55:52.439Z,99.90
2017-10-29T04:58:19.995Z,99.90
2017-10-29T05:00:47.748Z,99.90
2017-10-29T05:03:15.251Z,99.90
2017-10-29T05:05:42.744Z,99.90
2017-10-29T05:08:10.244Z,99.90
2017-10-29T05:10:37.740Z,99.90
2017-10-29T05:13:05.389Z,99.90
2017-10-29T05:15:32.889Z,99.90
2017-10-29T05:18:00.521Z,99.90
2017-10-29T05:20:28.029Z,99.90
2017-10-29T05:22:55.754Z,99.90
2017-10-29T05:25:23.665Z,99.90
2017-10-29T05:27:51.427Z,99.90
2017-10-29T05:30:18.915Z,99.90
2017-10-29T05:32:47.195Z,99.90
2017-10-29T05:35:14.694Z,99.90
2017-10-29T05:37:42.185Z,99.90
2017-10-29T05:40:10.503Z,99.90
2017-10-29T05:42:37.996Z,99.90
2017-10-29T05:45:05.500Z,99.90
2017-10-29T05:47:33.012Z,99.90
2017-10-29T05:50:00.515Z,99.90
2017-10-29T05:52:28.025Z,99.90
2017-10-29T05:54:55.729Z,99.90
2017-10-29T05:57:23.228Z,99.90
2017-10-29T05:59:50.733Z,99.90
2017-10-29T06:02:19.117Z,99.90
2017-10-29T06:04:46.844Z,99.90
2017-10-29T06:07:14.343Z,99.90
2017-10-29T06:09:41.861Z,99.90
2017-10-29T06:12:09.364Z,99.90
2017-10-29T06:14:37.199Z,99.90
2017-10-29T06:17:04.689Z,99.90
2017-10-29T06:19:32.192Z,99.90
2017-10-29T06:22:00.185Z,99.90
2017-10-29T06:24:27.708Z,99.90
2017-10-29T06:26:55.215Z,99.90
2017-10-29T06:29:22.712Z,99.90
2017-10-29T06:31:50.220Z,99.90
2017-10-29T06:34:17.721Z,99.90
2017-10-29T06:36:45.302Z,99.90
2017-10-29T06:39:12.795Z,99.90
2017-10-29T06:41:40.308Z,99.90
2017-10-29T06:44:07.852Z,99.90
2017-10-29T06:46:35.344Z,99.90
2017-10-29T06:49:02.884Z,99.90
2017-10-29T06:51:30.666Z,99.90
2017-10-29T06:53:58.157Z,99.90
2017-10-29T06:56:25.872Z,99.90
2017-10-29T06:58:53.368Z,99.90
2017-10-29T07:01:21.076Z,99.90
2017-10-29T07:03:48.805Z,99.90
2017-10-29T07:06:16.307Z,99.90
2017-10-29T07:08:44.077Z,99.90
2017-10-29T07:11:11.578Z,99.90
2017-10-29T07:13:39.100Z,99.90
2017-10-29T07:16:06.801Z,99.90
2017-10-29T07:18:34.516Z,99.90
2017-10-29T07:21:02.011Z,99.90
2017-10-29T07:23:29.529Z,99.90
2017-10-29T07:25:57.193Z,99.90
2017-10-29T07:28:24.704Z,99.90
2017-10-29T07:30:52.200Z,99.90
2017-10-29T07:33:19.847Z,99.90
2017-10-29T07:35:47.335Z,99.90
2017-10-29T07:38:15.088Z,99.90
2017-10-29T07:40:42.589Z,99.90
2017-10-29T07:43:10.493Z,99.60
2017-10-29T07:45:38.073Z,99.90
2017-10-29T07:48:06.132Z,99.60
2017-10-29T07:50:33.918Z,99.70
2017-10-29T07:53:01.424Z,99.40
2017-10-29T07:55:28.940Z,99.50
2017-10-29T07:57:56.435Z,99.60
2017-10-29T08:00:23.936Z,99.70
2017-10-29T08:02:51.430Z,99.10
2017-10-29T08:05:18.972Z,99.50
2017-10-29T08:07:46.464Z,99.40
2017-10-29T08:10:13.963Z,99.10
2017-10-29T08:12:41.649Z,99.10
2017-10-29T08:15:09.372Z,98.80
2017-10-29T08:17:36.865Z,98.70
2017-10-29T08:20:04.612Z,98.30
2017-10-29T08:22:32.376Z,97.80
2017-10-29T08:24:59.874Z,97.80
2017-10-29T08:27:27.557Z,97.90
2017-10-29T08:29:55.056Z,98.00
2017-10-29T08:32:22.797Z,97.60
2017-10-29T08:34:50.580Z,97.30
2017-10-29T08:37:18.174Z,97.00
2017-10-29T08:39:45.805Z,97.10
2017-10-29T08:42:13.439Z,96.60
2017-10-29T08:44:40.952Z,96.90
2017-10-29T08:47:08.445Z,96.90
2017-10-29T08:49:36.244Z,96.30
2017-10-29T08:52:03.912Z,96.40
2017-10-29T08:54:31.420Z,96.60
2017-10-29T08:56:58.921Z,96.50
2017-10-29T08:59:26.447Z,96.70
2017-10-29T09:01:54.147Z,96.10
2017-10-29T09:04:21.660Z,95.70
2017-10-29T09:06:49.344Z,95.30
2017-10-29T09:09:17.120Z,94.90
2017-10-29T09:11:44.633Z,95.10
2017-10-29T09:14:12.140Z,94.30
2017-10-29T09:16:39.800Z,94.10
2017-10-29T09:19:07.357Z,94.00
2017-10-29T09:21:36.060Z,93.70
2017-10-29T09:24:03.567Z,94.20
2017-10-29T09:26:31.084Z,94.50
2017-10-29T09:28:58.565Z,94.30
2017-10-29T09:31:26.184Z,94.80
2017-10-29T09:33:53.685Z,95.10
2017-10-29T09:36:21.192Z,95.10
2017-10-29T09:38:48.752Z,94.00
2017-10-29T09:41:16.516Z,93.70
2017-10-29T09:43:44.013Z,94.00
2017-10-29T09:46:11.516Z,94.60
2017-10-29T09:48:39.015Z,94.80
2017-10-29T09:51:06.656Z,94.70
2017-10-29T09:53:34.152Z,94.90
2017-10-29T09:56:01.672Z,95.00
2017-10-29T09:58:29.320Z,95.10
2017-10-29T10:00:56.838Z,95.40
2017-10-29T10:03:24.335Z,95.00
2017-10-29T10:05:52.000Z,95.70
2017-10-29T10:08:19.495Z,95.30
2017-10-29T10:10:47.190Z,94.70
2017-10-29T10:13:14.692Z,95.70
2017-10-29T10:15:42.200Z,94.80
2017-10-29T10:18:09.892Z,97.20
2017-10-29T10:20:37.618Z,94.40
2017-10-29T10:23:05.189Z,94.80
2017-10-29T10:25:32.846Z,94.50
2017-10-29T10:28:00.397Z,94.80
2017-10-29T10:30:28.692Z,95.10
2017-10-29T10:32:57.203Z,95.10
2017-10-29T10:35:24.855Z,94.10
2017-10-29T10:37:52.361Z,94.70
2017-10-29T10:40:19.867Z,94.60
2017-10-29T10:42:47.381Z,94.70
2017-10-29T10:45:14.881Z,94.00
2017-10-29T10:47:42.387Z,94.00
2017-10-29T10:50:09.892Z,93.80
2017-10-29T10:52:37.417Z,93.50
2017-10-29T10:55:04.912Z,93.40
2017-10-29T10:57:32.574Z,92.00
2017-10-29T11:00:00.180Z,92.20
2017-10-29T11:02:27.670Z,91.60
2017-10-29T11:04:55.255Z,91.50
2017-10-29T11:07:22.759Z,91.40
2017-10-29T11:09:50.264Z,91.10
2017-10-29T11:12:17.935Z,90.00
2017-10-29T11:14:45.437Z,90.30
2017-10-29T11:17:12.951Z,90.40
2017-10-29T11:19:40.679Z,90.00
2017-10-29T11:22:08.175Z,90.60
2017-10-29T11:24:35.700Z,90.50
2017-10-29T11:27:03.280Z,90.60
2017-10-29T11:29:30.795Z,90.40
2017-10-29T11:31:58.477Z,90.30
2017-10-29T11:34:25.989Z,89.30
2017-10-29T11:36:54.602Z,90.20
2017-10-29T11:39:22.115Z,89.00
2017-10-29T11:41:49.621Z,89.00
2017-10-29T11:44:17.169Z,89.50
2017-10-29T11:46:45.469Z,87.90
2017-10-29T11:49:12.998Z,87.90
2017-10-29T11:51:41.263Z,99.90
2017-10-29T11:54:08.775Z,99.90
2017-10-29T11:56:36.295Z,88.20
2017-10-29T11:59:03.811Z,90.80
2017-10-29T12:01:31.961Z,90.90
2017-10-29T12:03:59.464Z,87.70
2017-10-29T12:06:27.500Z,88.50
2017-10-29T12:08:55.031Z,89.60
2017-10-29T12:11:22.546Z,92.10
2017-10-29T12:13:50.228Z,94.10
2017-10-29T12:16:17.953Z,95.10
2017-10-29T12:18:45.680Z,95.30
2017-10-29T12:21:13.190Z,95.40
2017-10-29T12:23:40.694Z,95.80
2017-10-29T12:26:10.880Z,95.90
2017-10-29T12:28:38.577Z,95.80
2017-10-29T12:31:07.987Z,94.80
2017-10-29T12:33:36.971Z,92.90
2017-10-29T12:36:04.669Z,92.30
2017-10-29T12:38:32.205Z,92.20
2017-10-29T12:40:59.867Z,92.10
2017-10-29T12:43:27.647Z,91.20
2017-10-29T12:45:55.432Z,90.90
2017-10-29T12:48:23.187Z,90.00
2017-10-29T12:50:50.692Z,89.40
2017-10-29T12:53:18.221Z,87.40
2017-10-29T12:55:46.783Z,85.20
2017-10-29T12:58:14.527Z,85.10
2017-10-29T13:00:42.036Z,84.60
2017-10-29T13:03:09.664Z,85.70
2017-10-29T13:05:37.181Z,84.40
2017-10-29T13:08:04.708Z,85.20
2017-10-29T13:10:32.428Z,85.00
2017-10-29T13:12:59.945Z,83.70
2017-10-29T13:15:27.455Z,82.50
2017-10-29T13:17:54.965Z,82.20
2017-10-29T13:20:22.549Z,83.40
2017-10-29T13:22:50.064Z,83.00
2017-10-29T13:25:17.568Z,83.60
2017-10-29T13:27:45.108Z,82.00
2017-10-29T13:30:12.607Z,81.50
2017-10-29T13:32:40.154Z,81.30
2017-10-29T13:35:07.685Z,82.50
2017-10-29T13:37:35.374Z,82.20
2017-10-29T13:40:02.868Z,83.10
2017-10-29T13:42:30.588Z,83.10
2017-10-29T13:44:58.126Z,83.80
2017-10-29T13:47:25.629Z,84.10
2017-10-29T13:49:53.150Z,85.30
2017-10-29T13:52:20.700Z,85.50
2017-10-29T13:54:48.491Z,86.30
2017-10-29T13:57:16.199Z,86.60
2017-10-29T13:59:43.712Z,87.30
2017-10-29T14:02:11.475Z,88.40
2017-10-29T14:04:38.976Z,88.20
2017-10-29T14:07:06.536Z,88.30
2017-10-29T14:09:34.059Z,86.40
2017-10-29T14:12:02.445Z,86.90
2017-10-29T14:14:29.951Z,86.80
2017-10-29T14:16:57.448Z,86.30
2017-10-29T14:19:24.960Z,86.20
2017-10-29T14:21:52.464Z,85.00
2017-10-29T14:24:19.971Z,84.30
2017-10-29T14:26:47.469Z,83.70
2017-10-29T14:29:14.980Z,84.30
2017-10-29T14:31:42.481Z,84.60
2017-10-29T14:34:10.256Z,85.10
2017-10-29T14:36:37.765Z,84.00
2017-10-29T14:39:05.275Z,84.90
2017-10-29T14:41:32.988Z,86.20
2017-10-29T14:44:00.680Z,86.50
2017-10-29T14:46:28.191Z,87.00
2017-10-29T14:48:55.701Z,88.00
2017-10-29T14:51:23.213Z,89.10
2017-10-29T14:53:50.713Z,90.10
2017-10-29T14:56:18.222Z,90.50
2017-10-29T14:58:45.722Z,91.30
2017-10-29T15:01:13.234Z,90.70
2017-10-29T15:03:40.740Z,91.30
2017-10-29T15:06:08.248Z,91.40
2017-10-29T15:08:36.517Z,91.40
2017-10-29T15:11:04.727Z,91.40
2017-10-29T15:13:32.301Z,91.60
2017-10-29T15:16:00.072Z,92.00
2017-10-29T15:18:28.020Z,92.30
2017-10-29T15:20:55.991Z,92.10
2017-10-29T15:23:23.677Z,92.30
2017-10-29T15:25:51.203Z,93.00
2017-10-29T15:28:18.857Z,92.90
2017-10-29T15:30:46.382Z,92.90
2017-10-29T15:33:13.888Z,92.90
2017-10-29T15:35:41.541Z,92.90
2017-10-29T15:38:09.368Z,93.10
2017-10-29T15:40:36.842Z,93.00
2017-10-29T15:43:04.547Z,93.30
2017-10-29T15:45:32.224Z,93.40
2017-10-29T15:47:59.724Z,93.40
2017-10-29T15:50:27.234Z,93.60
2017-10-29T15:52:54.752Z,93.30
2017-10-29T15:55:22.430Z,92.90
2017-10-29T15:57:50.224Z,92.70
2017-10-29T16:00:17.759Z,92.50
2017-10-29T16:02:45.446Z,92.50
2017-10-29T16:05:12.960Z,92.60
2017-10-29T16:07:40.548Z,92.50
2017-10-29T16:10:08.071Z,92.70
2017-10-29T16:12:35.591Z,92.90
2017-10-29T16:15:03.104Z,93.10
2017-10-29T16:17:30.600Z,93.20
2017-10-29T16:19:58.247Z,94.00
2017-10-29T16:22:25.853Z,94.30
2017-10-29T16:24:53.477Z,94.40
2017-10-29T16:27:20.972Z,94.60
2017-10-29T16:29:49.184Z,94.80
2017-10-29T16:32:16.677Z,95.10
2017-10-29T16:34:44.209Z,95.20
2017-10-29T16:37:11.703Z,95.20
2017-10-29T16:39:39.213Z,95.40
2017-10-29T16:42:06.849Z,95.50
2017-10-29T16:44:34.649Z,95.30
2017-10-29T16:47:02.197Z,95.50
2017-10-29T16:49:29.729Z,95.50
2017-10-29T16:51:57.325Z,95.30
2017-10-29T16:54:24.821Z,95.20
2017-10-29T16:56:52.328Z,95.00
2017-10-29T16:59:19.966Z,94.90
2017-10-29T17:01:47.468Z,94.70
2017-10-29T17:04:15.222Z,95.00
2017-10-29T17:06:42.728Z,95.00
2017-10-29T17:09:10.233Z,94.90
2017-10-29T17:11:37.733Z,95.20
2017-10-29T17:14:06.014Z,95.10
2017-10-29T17:16:33.592Z,95.10
2017-10-29T17:19:01.149Z,95.40
2017-10-29T17:21:28.665Z,95.40
2017-10-29T17:23:56.164Z,95.40
2017-10-29T17:26:23.674Z,95.70
2017-10-29T17:28:51.168Z,95.80
2017-10-29T17:31:19.444Z,96.00
2017-10-29T17:33:46.951Z,96.00
2017-10-29T17:36:14.464Z,96.10
2017-10-29T17:38:42.068Z,96.40
2017-10-29T17:41:09.604Z,96.00
2017-10-29T17:43:37.128Z,96.20
2017-10-29T17:46:05.405Z,96.30
2017-10-29T17:48:33.121Z,96.30
2017-10-29T17:51:00.665Z,96.60
2017-10-29T17:53:28.300Z,96.60
2017-10-29T17:55:55.795Z,96.70
2017-10-29T17:58:23.312Z,96.70
2017-10-29T18:00:51.027Z,96.80
2017-10-29T18:03:18.563Z,97.00
2017-10-29T18:05:46.071Z,97.20
2017-10-29T18:08:14.617Z,97.40
2017-10-29T18:10:42.381Z,97.60
2017-10-29T18:13:10.143Z,97.80
2017-10-29T18:15:37.628Z,97.80
2017-10-29T18:18:05.152Z,97.90
2017-10-29T18:20:32.661Z,98.10
2017-10-29T18:23:01.210Z,98.20
2017-10-29T18:25:28.701Z,98.20
2017-10-29T18:27:56.205Z,98.50
2017-10-29T18:30:23.708Z,98.80
2017-10-29T18:32:51.986Z,99.40
2017-10-29T18:35:19.691Z,99.40
2017-10-29T18:37:47.485Z,99.60
2017-10-29T18:40:15.768Z,99.80
2017-10-29T18:42:43.288Z,99.90
2017-10-29T18:45:11.069Z,99.90
2017-10-29T18:47:38.596Z,99.90
2017-10-29T18:50:06.104Z,99.90
2017-10-29T18:52:33.763Z,99.90
2017-10-29T18:55:01.283Z,99.90
2017-10-29T18:57:28.970Z,99.90
2017-10-29T18:59:56.477Z,99.90
2017-10-29T19:02:23.977Z,99.90
2017-10-29T19:04:51.647Z,99.90
2017-10-29T19:07:19.557Z,99.90
2017-10-29T19:09:47.828Z,99.90
2017-10-29T19:12:15.558Z,99.90
2017-10-29T19:14:43.312Z,99.90
2017-10-29T19:17:11.104Z,99.90
2017-10-29T19:19:38.612Z,99.90
2017-10-29T19:22:06.120Z,99.90
2017-10-29T19:24:33.628Z,99.90
2017-10-29T19:27:01.133Z,99.90
2017-10-29T19:29:28.659Z,99.90
2017-10-29T19:31:56.149Z,99.90
2017-10-29T19:34:23.653Z,99.90
2017-10-29T19:36:51.320Z,99.90
2017-10-29T19:39:18.915Z,99.90
2017-10-29T19:41:46.408Z,99.90
2017-10-29T19:44:14.690Z,99.90
2017-10-29T19:46:42.989Z,99.90
2017-10-29T19:49:10.501Z,99.90
2017-10-29T19:51:38.024Z,99.90
2017-10-29T19:54:05.600Z,99.90
2017-10-29T19:56:33.093Z,99.90
2017-10-29T19:59:00.588Z,99.90
2017-10-29T20:01:28.380Z,99.90
2017-10-29T20:03:57.397Z,99.90
2017-10-29T20:06:25.053Z,99.90
2017-10-29T20:08:52.589Z,99.90
2017-10-29T20:11:20.264Z,99.90
2017-10-29T20:13:49.387Z,99.90
2017-10-29T20:16:16.892Z,99.90
2017-10-29T20:18:44.555Z,99.90
2017-10-29T20:21:12.057Z,99.90
2017-10-29T20:23:39.753Z,99.90
2017-10-29T20:26:07.260Z,99.90
2017-10-29T20:28:34.993Z,99.90
2017-10-29T20:31:02.500Z,99.90
2017-10-29T20:33:30.180Z,99.90
2017-10-29T20:35:57.685Z,99.90
2017-10-29T20:38:25.192Z,99.90
2017-10-29T20:40:52.873Z,99.90
2017-10-29T20:43:20.647Z,99.90
2017-10-29T20:45:48.151Z,99.90
2017-10-29T20:48:15.872Z,99.90
2017-10-29T20:50:43.369Z,99.90
2017-10-29T20:53:11.040Z,99.90
2017-10-29T20:55:38.553Z,99.90
2017-10-29T20:58:06.065Z,99.90
2017-10-29T21:00:33.653Z,99.90
2017-10-29T21:03:01.952Z,99.90
2017-10-29T21:05:29.568Z,99.90
2017-10-29T21:07:57.073Z,99.90
2017-10-29T21:10:24.581Z,99.90
2017-10-29T21:12:52.284Z,99.90
2017-10-29T21:15:19.776Z,99.90
2017-10-29T21:17:47.559Z,99.90
2017-10-29T21:20:15.053Z,99.90
2017-10-29T21:22:42.698Z,99.90
2017-10-29T21:25:10.213Z,99.90
2017-10-29T21:27:37.944Z,99.90
2017-10-29T21:30:05.441Z,99.90
2017-10-29T21:32:32.995Z,99.90
2017-10-29T21:35:01.260Z,99.90
2017-10-29T21:37:28.760Z,99.90
2017-10-29T21:39:56.276Z,99.90
2017-10-29T21:42:23.918Z,99.90
2017-10-29T21:44:51.420Z,99.90
2017-10-29T21:47:19.150Z,99.90
2017-10-29T21:49:46.678Z,99.90
2017-10-29T21:52:14.176Z,99.90
2017-10-29T21:54:42.449Z,99.90
2017-10-29T21:57:10.192Z,99.90
2017-10-29T21:59:37.703Z,99.90
2017-10-29T22:02:05.378Z,99.90
2017-10-29T22:04:32.892Z,99.90
2017-10-29T22:07:00.627Z,99.90
2017-10-29T22:09:28.820Z,99.90
2017-10-29T22:11:56.315Z,99.90
2017-10-29T22:14:23.918Z,99.90
2017-10-29T22:16:51.416Z,99.90
2017-10-29T22:19:18.942Z,99.90
2017-10-29T22:21:46.445Z,99.90
2017-10-29T22:24:13.957Z,99.90
2017-10-29T22:26:41.498Z,99.90
2017-10-29T22:29:09.010Z,99.90
2017-10-29T22:31:36.668Z,99.90
2017-10-29T22:34:04.169Z,99.90
2017-10-29T22:36:31.686Z,99.90
2017-10-29T22:38:59.191Z,99.90
2017-10-29T22:41:26.697Z,99.90
2017-10-29T22:43:54.221Z,99.90
2017-10-29T22:46:21.776Z,99.90
2017-10-29T22:48:49.273Z,99.90
2017-10-29T22:51:17.001Z,99.90
2017-10-29T22:53:44.507Z,99.90
2017-10-29T22:56:12.208Z,99.90
2017-10-29T22:58:39.972Z,99.90
2017-10-29T23:01:07.489Z,99.90
2017-10-29T23:03:35.209Z,99.90
2017-10-29T23:08:56.480Z,99.90
2017-10-29T23:11:24.032Z,99.90
2017-10-29T23:13:51.686Z,99.90
2017-10-29T23:16:19.225Z,99.90
2017-10-29T23:18:46.729Z,99.90
2017-10-29T23:21:14.400Z,99.90
2017-10-29T23:23:41.944Z,99.90
2017-10-29T23:26:09.634Z,99.90
2017-10-29T23:28:37.752Z,99.90
2017-10-29T23:31:05.284Z,99.90
2017-10-29T23:33:32.933Z,99.90
2017-10-29T23:36:00.697Z,99.90
2017-10-29T23:38:28.214Z,99.90
2017-10-29T23:40:55.736Z,99.90
2017-10-29T23:43:23.345Z,99.90
2017-10-29T23:45:50.837Z,99.90
2017-10-29T23:48:18.395Z,99.90
2017-10-29T23:50:45.896Z,99.90
2017-10-29T23:53:14.171Z,99.90
2017-10-29T23:55:41.903Z,99.90
2017-10-29T23:58:09.454Z,99.90
